Time;durP1;ratioP1;P1;durP2;ratioP2;P2;SDS_P1;SDS_P2;PMS_P1;PMS_P2;Temp;Humidity;BMP_temperature;BMP_pressure;BME280_temperature;BME280_humidity;BME280_pressure;Samples;Min_cycle;Max_cycle;Signal;HPM_P1;HPM_P2
2023/08/08 00:00:15;;;;;;;;;5.00;3.00;;;;;22.99;98.98;101584.09;5036464;28;45861;-78
2023/08/08 00:02:40;;;;;;;;;3.67;3.00;;;;;22.91;99.84;101580.75;5035802;28;53190;-78
2023/08/08 00:05:06;;;;;;;;;5.00;3.33;;;;;22.90;99.60;101585.22;5035729;28;45363;-78
2023/08/08 00:07:31;;;;;;;;;3.00;3.00;;;;;22.85;99.77;101584.47;5018081;28;45354;-78
2023/08/08 00:09:57;;;;;;;;;4.67;3.00;;;;;22.79;100.00;101583.72;5035853;28;57134;-78
2023/08/08 00:12:22;;;;;;;;;2.67;2.67;;;;;22.80;100.00;101581.00;5034594;28;71027;-78
2023/08/08 00:14:48;;;;;;;;;2.67;2.67;;;;;22.80;100.00;101581.00;5018790;28;45509;-77
2023/08/08 00:17:13;;;;;;;;;3.00;3.00;;;;;22.77;100.00;101573.00;5034761;28;50952;-77
2023/08/08 00:19:38;;;;;;;;;2.67;2.67;;;;;22.81;100.00;101579.19;5036443;28;51304;-78
2023/08/08 00:22:04;;;;;;;;;2.67;2.67;;;;;22.81;100.00;101572.00;4999923;28;47516;-78
2023/08/08 00:24:29;;;;;;;;;2.67;2.67;;;;;22.73;100.00;101569.50;5005677;28;53152;-78
2023/08/08 00:26:54;;;;;;;;;3.00;3.00;;;;;22.70;100.00;101566.91;5031565;28;58998;-78
2023/08/08 00:29:20;;;;;;;;;4.67;3.00;;;;;22.63;100.00;101569.78;5017930;28;45485;-78
2023/08/08 00:31:45;;;;;;;;;2.33;2.00;;;;;22.57;100.00;101575.34;5035264;28;50591;-77
2023/08/08 00:34:10;;;;;;;;;4.33;3.00;;;;;22.50;100.00;101569.25;5035176;28;45492;-77
2023/08/08 00:36:36;;;;;;;;;2.00;2.00;;;;;22.54;100.00;101570.06;5033928;28;62962;-78
2023/08/08 00:39:01;;;;;;;;;1.00;1.00;;;;;22.51;100.00;101570.13;5035206;28;58242;-77
2023/08/08 00:41:26;;;;;;;;;5.00;3.67;;;;;22.47;100.00;101567.50;5034681;28;66387;-77
2023/08/08 00:43:52;;;;;;;;;2.33;2.33;;;;;22.48;100.00;101560.34;5018032;28;49521;-78
2023/08/08 00:46:21;;;;;;;;;4.67;2.67;;;;;22.43;100.00;101556.91;5035623;28;45388;-78
2023/08/08 00:48:47;;;;;;;;;4.00;3.00;;;;;22.42;100.00;101558.69;5036138;28;45549;-77
2023/08/08 00:51:13;;;;;;;;;2.00;2.00;;;;;22.33;100.00;101550.88;5015141;28;62145;-77
2023/08/08 00:53:38;;;;;;;;;1.33;1.33;;;;;22.29;100.00;101542.91;5018448;28;45384;-78
2023/08/08 00:56:04;;;;;;;;;2.33;2.33;;;;;22.27;100.00;101542.97;5017469;28;56704;-78
2023/08/08 00:58:30;;;;;;;;;1.67;1.67;;;;;22.27;100.00;101548.34;5017899;28;45290;-76
2023/08/08 01:00:57;;;;;;;;;1.67;1.67;;;;;22.28;100.00;101542.03;5001728;28;46334;-77
2023/08/08 01:03:22;;;;;;;;;5.00;2.33;;;;;22.23;100.00;101547.53;5033867;28;45470;-78
2023/08/08 01:05:53;;;;;;;;;4.00;3.33;;;;;22.20;100.00;101535.97;5036495;28;45355;-78
2023/08/08 01:08:23;;;;;;;;;3.00;3.00;;;;;22.21;100.00;101546.69;5008647;28;45320;-77
2023/08/08 01:10:48;;;;;;;;;4.67;2.00;;;;;22.22;100.00;101542.19;5016283;28;46545;-78
2023/08/08 01:13:24;;;;;;;;;1.67;1.67;;;;;22.45;100.00;101546.97;5013704;28;69408;-78
2023/08/08 01:15:50;;;;;;;;;7.33;3.33;;;;;22.53;100.00;101539.59;5012959;28;62596;-78
2023/08/08 01:18:16;;;;;;;;;2.67;2.67;;;;;22.51;100.00;101541.41;5014673;28;62715;-77
2023/08/08 01:20:45;;;;;;;;;3.67;3.67;;;;;22.28;100.00;101544.72;5017829;28;47821;-78
2023/08/08 01:23:24;;;;;;;;;2.33;2.33;;;;;22.39;100.00;101548.00;5022495;28;45256;-77
2023/08/08 01:25:50;;;;;;;;;2.00;2.00;;;;;22.17;100.00;101550.38;5016372;28;45378;-78
2023/08/08 01:28:20;;;;;;;;;2.33;2.33;;;;;22.28;100.00;101550.09;5017379;28;45835;-78
2023/08/08 01:30:45;;;;;;;;;2.33;2.33;;;;;22.43;100.00;101547.03;5017290;28;46354;-77
2023/08/08 01:33:10;;;;;;;;;2.67;1.67;;;;;22.43;100.00;101551.53;5035058;28;45722;-78
2023/08/08 01:35:41;;;;;;;;;2.67;1.67;;;;;22.28;100.00;101546.53;5035112;28;45764;-77
2023/08/08 01:38:14;;;;;;;;;4.33;3.67;;;;;22.11;100.00;101539.78;5038355;28;46085;-78
2023/08/08 01:40:41;;;;;;;;;2.33;2.33;;;;;22.35;100.00;101549.00;5020718;28;47462;-78
2023/08/08 01:43:07;;;;;;;;;2.67;1.67;;;;;22.34;100.00;101536.50;5019132;28;70559;-78
2023/08/08 01:45:32;;;;;;;;;2.33;2.33;;;;;22.14;100.00;101542.38;5038773;28;45260;-78
2023/08/08 01:47:58;;;;;;;;;3.33;2.33;;;;;22.14;100.00;101553.13;5037752;28;64704;-77
2023/08/08 01:50:23;;;;;;;;;2.00;2.00;;;;;22.16;100.00;101553.13;5037798;28;69945;-77
2023/08/08 01:52:48;;;;;;;;;3.00;2.33;;;;;22.45;100.00;101552.34;5036988;28;45176;-77
2023/08/08 01:55:14;;;;;;;;;3.67;3.00;;;;;22.40;100.00;101549.78;5021956;28;45334;-78
2023/08/08 01:57:39;;;;;;;;;2.33;1.67;;;;;22.45;100.00;101555.91;5038764;28;45519;-77
2023/08/08 02:00:06;;;;;;;;;3.00;2.00;;;;;22.48;100.00;101550.47;5032775;28;56678;-78
2023/08/08 02:02:31;;;;;;;;;3.33;2.00;;;;;22.41;100.00;101539.88;5013667;28;45466;-77
2023/08/08 02:04:57;;;;;;;;;3.67;1.67;;;;;22.41;100.00;101539.88;5037798;28;45334;-77
2023/08/08 02:07:22;;;;;;;;;3.67;1.67;;;;;22.39;100.00;101537.25;5046519;28;59481;-77
2023/08/08 02:09:48;;;;;;;;;2.33;2.33;;;;;22.13;100.00;101531.66;5037189;28;70062;-77
2023/08/08 02:12:14;;;;;;;;;1.67;1.67;;;;;22.38;100.00;101527.41;5031389;28;45933;-77
2023/08/08 02:14:39;;;;;;;;;3.00;2.67;;;;;22.44;100.00;101518.28;5037319;28;57261;-77
2023/08/08 02:17:05;;;;;;;;;2.67;2.67;;;;;22.37;100.00;101516.66;5179519;22;56836;-78
2023/08/08 02:19:30;;;;;;;;;3.00;2.00;;;;;22.46;100.00;101521.81;5060204;28;45785;-78
2023/08/08 02:21:55;;;;;;;;;3.67;3.00;;;;;22.39;100.00;101531.88;5059617;27;45544;-79
2023/08/08 02:24:21;;;;;;;;;4.00;2.67;;;;;22.37;100.00;101524.75;5059546;28;63989;-78
2023/08/08 02:26:46;;;;;;;;;3.33;2.00;;;;;22.38;100.00;101523.84;5078011;28;45324;-78
2023/08/08 02:29:11;;;;;;;;;3.33;2.00;;;;;22.35;100.00;101519.41;5077867;28;46581;-78
2023/08/08 02:31:37;;;;;;;;;3.33;1.33;;;;;22.33;100.00;101505.13;5076999;28;65880;-77
2023/08/08 02:34:02;;;;;;;;;5.33;3.00;;;;;22.29;100.00;101507.94;5077304;27;62287;-77
2023/08/08 02:36:27;;;;;;;;;4.00;2.00;;;;;22.26;100.00;101510.69;5078380;27;45371;-78
2023/08/08 02:38:53;;;;;;;;;3.00;3.00;;;;;22.31;100.00;101509.66;5058532;27;70316;-78
2023/08/08 02:41:19;;;;;;;;;3.00;2.00;;;;;22.15;100.00;101501.09;5077424;27;45346;-77
2023/08/08 02:43:45;;;;;;;;;1.00;1.00;;;;;22.17;100.00;101501.97;5076498;27;45462;-78
2023/08/08 02:46:10;;;;;;;;;3.00;2.67;;;;;22.10;100.00;101502.13;5076886;27;45587;-78
2023/08/08 02:48:36;;;;;;;;;4.00;4.00;;;;;22.14;100.00;101501.16;5075603;27;71399;-77
2023/08/08 02:51:01;;;;;;;;;2.00;2.00;;;;;22.15;100.00;101502.91;5058642;28;45437;-78
2023/08/08 02:53:26;;;;;;;;;7.67;3.00;;;;;22.13;100.00;101504.78;5076391;28;62289;-78
2023/08/08 02:55:52;;;;;;;;;2.33;2.33;;;;;22.12;100.00;101514.66;5059583;28;45491;-78
2023/08/08 02:58:17;;;;;;;;;1.33;1.33;;;;;21.88;100.00;101524.19;5077069;27;59198;-78
2023/08/08 03:00:42;;;;;;;;;3.67;2.33;;;;;21.79;100.00;101532.50;5076960;27;69390;-79
2023/08/08 03:03:08;;;;;;;;;3.67;2.67;;;;;21.82;100.00;101521.63;5076186;27;63631;-77
2023/08/08 03:05:34;;;;;;;;;4.00;1.67;;;;;21.76;100.00;101519.09;5078047;28;45454;-78
2023/08/08 03:07:59;;;;;;;;;2.33;2.33;;;;;21.80;100.00;101523.50;5076127;28;66752;-78
2023/08/08 03:10:24;;;;;;;;;1.33;1.33;;;;;21.79;100.00;101519.03;5077791;28;45386;-78
2023/08/08 03:12:50;;;;;;;;;4.33;2.33;;;;;21.77;100.00;101530.75;5077310;28;45479;-78
2023/08/08 03:15:15;;;;;;;;;5.00;2.00;;;;;21.73;100.00;101527.22;5076438;28;59927;-78
2023/08/08 03:17:41;;;;;;;;;6.00;3.00;;;;;21.75;100.00;101521.84;5077141;28;45807;-78
2023/08/08 03:20:06;;;;;;;;;3.00;3.00;;;;;21.76;100.00;101531.66;5077512;27;45304;-77
2023/08/08 03:22:32;;;;;;;;;2.33;2.33;;;;;21.75;100.00;101522.72;5058819;28;45406;-78
2023/08/08 03:24:58;;;;;;;;;3.33;3.33;;;;;21.69;100.00;101509.44;5058241;28;45520;-78
2023/08/08 03:27:23;;;;;;;;;2.00;2.00;;;;;21.75;100.00;101505.72;5076671;28;45609;-78
2023/08/08 03:29:49;;;;;;;;;3.67;2.00;;;;;21.64;100.00;101506.84;5067434;28;45400;-79
2023/08/08 03:32:14;;;;;;;;;2.33;2.33;;;;;21.60;100.00;101525.78;5073977;27;61135;-78
2023/08/08 03:34:40;;;;;;;;;3.00;3.00;;;;;21.56;100.00;101535.69;5077854;27;45391;-78
2023/08/08 03:37:05;;;;;;;;;3.67;3.67;;;;;21.53;100.00;101532.22;5076149;27;69158;-78
2023/08/08 03:39:30;;;;;;;;;3.67;3.67;;;;;21.51;100.00;101534.03;5077404;27;45296;-78
2023/08/08 03:41:56;;;;;;;;;5.00;3.33;;;;;21.52;100.00;101530.44;5058036;28;65282;-78
2023/08/08 03:44:21;;;;;;;;;3.00;3.00;;;;;21.48;100.00;101526.94;5075849;28;59967;-79
2023/08/08 03:46:47;;;;;;;;;3.00;3.00;;;;;21.49;100.00;101528.72;5075883;28;69271;-78
2023/08/08 03:49:12;;;;;;;;;4.33;4.00;;;;;21.50;100.00;101549.28;5077012;28;45954;-78
2023/08/08 03:51:37;;;;;;;;;3.33;3.00;;;;;21.54;100.00;101545.63;5076237;28;45327;-78
2023/08/08 03:54:03;;;;;;;;;3.00;3.00;;;;;21.59;100.00;101542.81;5058640;28;59602;-78
2023/08/08 03:56:28;;;;;;;;;5.00;4.00;;;;;21.67;100.00;101533.63;5075581;28;45984;-78
2023/08/08 03:58:54;;;;;;;;;3.00;2.33;;;;;21.85;100.00;101529.66;5075609;28;68588;-78
2023/08/08 04:01:19;;;;;;;;;4.67;3.00;;;;;21.93;100.00;101532.13;5076668;28;45255;-79
2023/08/08 04:03:45;;;;;;;;;3.33;3.33;;;;;21.89;100.00;101531.34;5076904;28;45189;-78
2023/08/08 04:06:10;;;;;;;;;2.00;2.00;;;;;21.84;100.00;101522.50;5075658;27;67883;-78
2023/08/08 04:08:35;;;;;;;;;5.00;4.00;;;;;21.83;100.00;101527.91;5075720;28;66697;-78
2023/08/08 04:11:01;;;;;;;;;4.33;3.00;;;;;21.89;100.00;101533.13;5075968;28;45386;-78
2023/08/08 04:13:26;;;;;;;;;2.33;2.33;;;;;21.83;100.00;101528.78;5080637;27;60797;-78
2023/08/08 04:15:51;;;;;;;;;2.67;2.67;;;;;21.82;100.00;101537.78;5084091;27;45720;-79
2023/08/08 04:18:17;;;;;;;;;4.00;4.00;;;;;21.82;100.00;101534.19;5077108;28;45335;-78
2023/08/08 04:20:43;;;;;;;;;5.00;3.00;;;;;21.85;100.00;101529.66;5075454;27;45490;-78
2023/08/08 04:23:08;;;;;;;;;3.67;3.00;;;;;21.84;100.00;101524.28;5058442;28;45340;-78
2023/08/08 04:25:33;;;;;;;;;3.00;3.00;;;;;21.82;100.00;101520.75;5075006;28;67580;-78
2023/08/08 04:27:59;;;;;;;;;2.00;2.00;;;;;21.88;100.00;101523.28;5074888;28;68496;-77
2023/08/08 04:30:24;;;;;;;;;3.67;3.00;;;;;21.83;100.00;101523.41;5075665;27;45871;-79
2023/08/08 04:32:49;;;;;;;;;3.67;3.67;;;;;21.61;100.00;101530.22;5056605;28;63751;-78
2023/08/08 04:35:15;;;;;;;;;3.00;3.00;;;;;21.60;100.00;101529.34;5075700;28;46460;-78
2023/08/08 04:37:41;;;;;;;;;1.67;1.67;;;;;21.57;100.00;101537.50;5075704;28;45520;-78
2023/08/08 04:40:08;;;;;;;;;4.00;3.00;;;;;21.68;100.00;101523.81;5076503;28;45544;-78
2023/08/08 04:42:33;;;;;;;;;3.00;3.00;;;;;21.61;100.00;101522.16;5057820;28;45497;-79
2023/08/08 04:44:59;;;;;;;;;4.00;2.00;;;;;21.55;100.00;101535.75;5057422;28;50327;-78
2023/08/08 04:47:24;;;;;;;;;2.67;2.67;;;;;21.59;100.00;101542.81;5075195;28;64040;-78
2023/08/08 04:49:49;;;;;;;;;3.67;2.33;;;;;21.53;100.00;101533.09;5076555;27;45276;-77
2023/08/08 04:52:15;;;;;;;;;3.00;3.00;;;;;21.59;100.00;101546.41;5075103;28;45517;-77
2023/08/08 04:54:40;;;;;;;;;4.00;3.00;;;;;21.57;100.00;101541.97;5071936;28;45361;-78
2023/08/08 04:57:06;;;;;;;;;4.00;4.00;;;;;21.56;100.00;101533.00;5077834;27;55109;-78
2023/08/08 04:59:31;;;;;;;;;5.33;4.00;;;;;21.58;100.00;101533.00;5074545;28;45449;-78
2023/08/08 05:01:56;;;;;;;;;3.00;3.00;;;;;21.63;100.00;101526.59;5058609;28;45350;-78
2023/08/08 05:04:22;;;;;;;;;4.00;2.00;;;;;21.63;100.00;101526.59;5070325;28;67081;-78
2023/08/08 05:06:47;;;;;;;;;2.00;2.00;;;;;21.53;100.00;101525.03;5072619;28;49118;-78
2023/08/08 05:09:12;;;;;;;;;1.33;1.33;;;;;21.53;100.00;101529.53;5075179;28;58574;-77
2023/08/08 05:11:38;;;;;;;;;3.33;2.33;;;;;21.60;100.00;101525.78;5077404;28;62771;-77
2023/08/08 05:14:03;;;;;;;;;3.33;2.33;;;;;21.59;100.00;101518.63;5061177;28;47700;-78
2023/08/08 05:16:28;;;;;;;;;2.67;2.00;;;;;21.55;100.00;101514.25;5078808;28;50634;-78
2023/08/08 05:18:54;;;;;;;;;2.33;2.33;;;;;21.53;100.00;101508.91;5078543;27;66636;-78
2023/08/08 05:21:21;;;;;;;;;2.67;2.67;;;;;21.55;100.00;101511.56;5079333;28;51788;-77
2023/08/08 05:23:47;;;;;;;;;2.00;2.00;;;;;21.53;100.00;101518.78;5078213;28;47680;-78
2023/08/08 05:26:14;;;;;;;;;4.67;2.33;;;;;21.48;100.00;101518.88;5078811;28;66867;-78
2023/08/08 05:28:39;;;;;;;;;1.67;1.67;;;;;21.48;100.00;101520.69;5078975;28;45397;-78
2023/08/08 05:31:05;;;;;;;;;4.00;3.00;;;;;21.44;100.00;101528.81;5079408;28;45432;-78
2023/08/08 05:33:30;;;;;;;;;3.33;2.00;;;;;21.42;100.00;101530.66;5078057;28;69923;-78
2023/08/08 05:35:55;;;;;;;;;3.67;2.00;;;;;21.39;100.00;101524.47;5078210;27;66685;-78
2023/08/08 05:38:21;;;;;;;;;2.00;2.00;;;;;21.42;100.00;101525.28;5079100;27;45676;-78
2023/08/08 05:40:46;;;;;;;;;4.00;3.00;;;;;21.41;100.00;101523.53;5079061;27;45465;-78
2023/08/08 05:43:16;;;;;;;;;3.33;2.67;;;;;21.42;100.00;101527.09;5078163;27;70267;-78
2023/08/08 05:45:42;;;;;;;;;0.33;0.33;;;;;21.48;100.00;101528.75;5078259;28;45327;-78
2023/08/08 05:48:09;;;;;;;;;3.00;1.67;;;;;21.55;100.00;101530.38;5060958;28;45280;-78
2023/08/08 05:50:37;;;;;;;;;4.00;2.33;;;;;21.62;100.00;101529.28;5061535;28;45962;-78
2023/08/08 05:53:02;;;;;;;;;6.00;3.00;;;;;21.75;100.00;101535.28;5078420;27;47425;-78
2023/08/08 05:55:27;;;;;;;;;6.00;2.67;;;;;21.72;100.00;101538.91;5061235;28;45434;-77
2023/08/08 05:57:54;;;;;;;;;4.00;3.00;;;;;21.63;100.00;101539.16;5078225;27;65018;-79
2023/08/08 06:00:20;;;;;;;;;4.00;3.00;;;;;21.64;100.00;101536.41;5079252;27;45516;-77
2023/08/08 06:02:45;;;;;;;;;3.00;3.00;;;;;21.69;100.00;101536.31;5077654;28;47636;-79
2023/08/08 06:05:11;;;;;;;;;3.67;2.00;;;;;21.68;100.00;101540.81;5078747;27;45310;-78
2023/08/08 06:07:36;;;;;;;;;3.00;3.00;;;;;21.66;100.00;101539.06;5078447;27;45308;-79
2023/08/08 06:10:02;;;;;;;;;1.33;1.33;;;;;21.71;100.00;101534.47;5077665;28;62161;-78
2023/08/08 06:12:27;;;;;;;;;4.33;2.00;;;;;21.74;100.00;101546.97;5078203;28;45489;-78
2023/08/08 06:14:53;;;;;;;;;3.67;3.67;;;;;21.80;100.00;101549.50;5078276;28;45498;-80
2023/08/08 06:17:18;;;;;;;;;2.00;2.00;;;;;21.81;100.00;101549.44;5074080;27;45699;-80
2023/08/08 06:19:44;;;;;;;;;2.00;2.00;;;;;21.84;100.00;101545.78;5076562;27;61779;-81
2023/08/08 06:22:09;;;;;;;;;1.67;1.67;;;;;21.83;100.00;101555.66;5076918;28;46590;-81
2023/08/08 06:24:34;;;;;;;;;4.00;1.33;;;;;21.89;100.00;101566.31;5077485;28;67961;-81
2023/08/08 06:27:00;;;;;;;;;2.00;2.00;;;;;21.88;100.00;101550.19;5074680;27;62980;-80
2023/08/08 06:29:25;;;;;;;;;2.33;2.00;;;;;21.87;100.00;101559.19;5075074;27;52404;-81
2023/08/08 06:31:50;;;;;;;;;3.67;1.33;;;;;21.81;100.00;101557.53;5074152;27;69636;-80
2023/08/08 06:34:15;;;;;;;;;2.00;1.33;;;;;21.70;100.00;101560.47;5076101;27;59044;-80
2023/08/08 06:36:41;;;;;;;;;1.33;1.33;;;;;21.72;100.00;101557.72;5075116;27;60179;-81
2023/08/08 06:39:07;;;;;;;;;4.33;2.00;;;;;21.73;100.00;101566.69;5076988;27;45411;-78
2023/08/08 06:41:32;;;;;;;;;2.67;2.67;;;;;21.75;100.00;101559.47;5075529;28;47541;-80
2023/08/08 06:43:58;;;;;;;;;0.33;0.33;;;;;21.77;100.00;101563.88;5057673;28;45442;-81
2023/08/08 06:46:24;;;;;;;;;3.33;1.67;;;;;21.76;100.00;101559.44;5077394;28;45264;-81
2023/08/08 06:48:50;;;;;;;;;4.00;1.00;;;;;21.98;100.00;101560.66;5076212;28;45569;-80
2023/08/08 06:51:15;;;;;;;;;0.67;0.67;;;;;22.10;100.00;101561.28;5073880;28;47543;-80
2023/08/08 06:53:41;;;;;;;;;0.33;0.33;;;;;21.96;100.00;101553.59;5074968;28;59905;-80
2023/08/08 06:56:06;;;;;;;;;4.00;2.00;;;;;21.89;100.00;101551.94;5074771;28;60083;-76
2023/08/08 06:58:31;;;;;;;;;2.00;2.00;;;;;21.83;100.00;101544.03;5074549;28;56581;-76
2023/08/08 07:00:57;;;;;;;;;2.33;2.33;;;;;21.77;100.00;101546.88;5072580;28;66631;-77
2023/08/08 07:03:22;;;;;;;;;2.00;2.00;;;;;21.77;100.00;101544.19;5074134;28;45455;-75
2023/08/08 07:05:51;;;;;;;;;1.33;1.33;;;;;21.74;100.00;101538.91;5074942;27;63212;-76
2023/08/08 07:08:17;;;;;;;;;1.33;1.33;;;;;21.71;100.00;101551.47;5073031;28;45473;-76
2023/08/08 07:10:43;;;;;;;;;1.00;1.00;;;;;21.77;100.00;101557.63;5074380;28;47113;-77
2023/08/08 07:13:08;;;;;;;;;3.00;3.00;;;;;21.76;100.00;101535.25;5073739;28;45540;-76
2023/08/08 07:15:34;;;;;;;;;4.00;2.00;;;;;21.75;100.00;101529.91;5071328;27;59061;-75
2023/08/08 07:17:59;;;;;;;;;2.67;1.33;;;;;21.75;100.00;101546.91;5072658;27;47047;-75
2023/08/08 07:20:25;;;;;;;;;1.00;1.00;;;;;21.81;100.00;101544.06;5070596;27;67107;-76
2023/08/08 07:22:50;;;;;;;;;1.00;1.00;;;;;21.86;100.00;101538.59;5074846;27;45450;-76
2023/08/08 07:25:16;;;;;;;;;2.00;2.00;;;;;21.82;100.00;101535.09;5074965;28;45504;-77
2023/08/08 07:27:41;;;;;;;;;2.67;2.00;;;;;21.78;100.00;101527.13;5075968;28;45534;-74
2023/08/08 07:30:08;;;;;;;;;2.00;1.00;;;;;21.68;100.00;101530.06;5069177;28;47176;-76
2023/08/08 07:32:34;;;;;;;;;0.67;0.67;;;;;21.70;100.00;101528.22;5070368;28;45492;-76
2023/08/08 07:35:02;;;;;;;;;3.00;2.00;;;;;21.67;100.00;101525.56;5070913;28;45699;-77
2023/08/08 07:37:27;;;;;;;;;2.67;1.33;;;;;21.68;100.00;101530.06;5070298;28;45723;-78
2023/08/08 07:39:53;;;;;;;;;3.00;1.00;;;;;21.72;100.00;101528.16;5074213;28;68495;-77
2023/08/08 07:42:18;;;;;;;;;2.00;1.00;;;;;21.73;100.00;101523.66;5073878;28;65014;-75
2023/08/08 07:44:43;;;;;;;;;3.33;0.33;;;;;21.74;100.00;101529.03;5075008;28;64582;-76
2023/08/08 07:47:09;;;;;;;;;2.33;1.33;;;;;21.80;100.00;101538.75;5074373;28;59852;-77
2023/08/08 07:49:34;;;;;;;;;1.33;0.33;;;;;21.81;100.00;101535.13;5075798;28;49296;-77
2023/08/08 07:51:59;;;;;;;;;0.33;0.33;;;;;21.86;100.00;101531.41;5075966;28;49157;-76
2023/08/08 07:54:25;;;;;;;;;3.67;1.33;;;;;21.88;100.00;101520.59;5074242;28;47063;-75
2023/08/08 07:56:50;;;;;;;;;1.33;1.33;;;;;21.98;100.00;101520.34;5075699;28;60376;-75
2023/08/08 07:59:16;;;;;;;;;1.33;1.33;;;;;22.05;100.00;101525.56;5075712;28;46341;-75
2023/08/08 08:01:41;;;;;;;;;2.33;1.00;;;;;22.12;100.00;101516.47;5075315;27;45370;-74
2023/08/08 08:04:07;;;;;;;;;0.67;0.67;;;;;22.40;100.00;101521.97;5075668;28;45296;-76
2023/08/08 08:06:32;;;;;;;;;0.67;0.67;;;;;22.31;100.00;101522.22;5075144;28;45660;-75
2023/08/08 08:08:57;;;;;;;;;1.67;1.67;;;;;22.33;100.00;101520.41;5074182;28;46512;-76
2023/08/08 08:11:23;;;;;;;;;1.00;1.00;;;;;22.32;100.00;101521.28;5075192;28;45269;-75
2023/08/08 08:13:48;;;;;;;;;0.00;0.00;;;;;22.35;100.00;101522.09;5057431;28;61590;-75
2023/08/08 08:16:14;;;;;;;;;1.00;1.00;;;;;22.31;100.00;101516.84;5075170;28;45469;-75
2023/08/08 08:18:39;;;;;;;;;0.67;0.67;;;;;22.35;100.00;101515.84;5072103;27;48049;-75
2023/08/08 08:21:04;;;;;;;;;4.00;1.67;;;;;22.43;100.00;101514.72;5074916;28;62268;-75
2023/08/08 08:23:32;;;;;;;;;2.33;1.00;;;;;22.48;100.00;101518.16;5075776;28;45472;-76
2023/08/08 08:25:57;;;;;;;;;2.00;2.00;;;;;22.53;100.00;101507.28;5056549;28;45218;-75
2023/08/08 08:28:22;;;;;;;;;1.67;0.33;;;;;22.55;100.00;101510.81;5075148;27;46734;-76
2023/08/08 08:30:49;;;;;;;;;1.00;1.00;;;;;22.59;100.00;101515.19;5073114;27;66927;-76
2023/08/08 08:33:14;;;;;;;;;1.00;1.00;;;;;22.61;100.00;101502.56;5073563;28;45447;-76
2023/08/08 08:35:40;;;;;;;;;4.00;2.67;;;;;22.73;100.00;101504.88;5076358;27;45524;-75
2023/08/08 08:38:06;;;;;;;;;2.33;1.67;;;;;22.91;100.00;101514.28;5075451;28;46758;-75
2023/08/08 08:40:36;;;;;;;;;1.67;1.67;;;;;22.95;100.00;101512.38;5076971;27;45664;-76
2023/08/08 08:43:02;;;;;;;;;4.33;0.67;;;;;22.94;100.00;101519.56;5075197;27;45498;-76
2023/08/08 08:45:29;;;;;;;;;1.00;1.00;;;;;22.98;100.00;101515.88;5081398;27;45614;-74
2023/08/08 08:47:56;;;;;;;;;2.33;2.33;;;;;22.96;100.00;101517.75;5082874;27;45705;-76
2023/08/08 08:50:22;;;;;;;;;2.67;2.00;;;;;22.92;100.00;101520.56;5075509;27;45438;-75
2023/08/08 08:52:47;;;;;;;;;1.00;1.00;;;;;22.94;100.00;101519.56;5064769;27;45265;-75
2023/08/08 08:55:12;;;;;;;;;2.00;1.00;;;;;22.96;100.00;101516.84;5061990;28;62000;-75
2023/08/08 08:57:38;;;;;;;;;3.00;1.00;;;;;22.97;100.00;101510.53;5060728;28;53449;-75
2023/08/08 09:00:05;;;;;;;;;2.00;2.00;;;;;23.05;100.00;101518.38;5078173;28;50061;-75
2023/08/08 09:02:31;;;;;;;;;1.00;1.00;;;;;23.11;100.00;101510.97;5077790;27;45442;-75
2023/08/08 09:04:57;;;;;;;;;1.00;1.00;;;;;23.14;100.00;101515.41;5079130;28;45169;-76
2023/08/08 09:07:26;;;;;;;;;3.00;1.00;;;;;23.19;100.00;101510.78;5058837;28;46618;-76
2023/08/08 09:09:52;;;;;;;;;0.33;0.33;;;;;23.18;100.00;101509.88;5079465;27;45371;-76
2023/08/08 09:12:18;;;;;;;;;2.00;2.00;;;;;23.22;100.00;101513.34;5078186;27;45476;-75
2023/08/08 09:14:43;;;;;;;;;2.00;1.00;;;;;23.27;100.00;101503.31;5078189;28;45416;-75
2023/08/08 09:17:13;;;;;;;;;1.00;1.00;;;;;23.43;100.00;101510.00;5077089;28;57647;-76
2023/08/08 09:19:41;;;;;;;;;3.00;2.00;;;;;23.60;100.00;101498.69;5078340;27;45422;-75
2023/08/08 09:22:07;;;;;;;;;2.00;1.67;;;;;23.85;100.00;101500.59;5078552;27;45296;-75
2023/08/08 09:24:32;;;;;;;;;1.00;1.00;;;;;23.96;100.00;101504.69;5078516;28;45562;-77
2023/08/08 09:26:57;;;;;;;;;1.00;1.00;;;;;24.01;100.00;101505.41;5077917;27;51894;-76
2023/08/08 09:29:23;;;;;;;;;1.00;1.00;;;;;24.11;99.09;101502.41;5078663;28;58015;-76
2023/08/08 09:31:49;;;;;;;;;2.33;2.33;;;;;24.18;98.55;101503.94;5078580;28;45490;-75
2023/08/08 09:34:14;;;;;;;;;3.00;2.00;;;;;24.26;98.51;101489.25;5078388;27;45627;-75
2023/08/08 09:36:40;;;;;;;;;3.00;2.00;;;;;24.34;98.23;101494.38;5059546;28;70900;-76
2023/08/08 09:39:06;;;;;;;;;1.33;1.00;;;;;24.25;97.37;101486.63;5078488;27;45467;-76
2023/08/08 09:41:32;;;;;;;;;2.00;2.00;;;;;24.15;97.50;101477.09;5079124;28;45292;-75
2023/08/08 09:43:59;;;;;;;;;1.00;1.00;;;;;24.20;97.59;101478.69;5078273;27;45664;-76
2023/08/08 09:46:24;;;;;;;;;1.00;1.00;;;;;24.16;97.47;101471.63;5078191;28;46814;-76
2023/08/08 09:48:50;;;;;;;;;3.00;1.33;;;;;24.21;98.33;101469.66;5082652;27;45382;-74
2023/08/08 09:51:16;;;;;;;;;4.00;1.00;;;;;24.19;97.54;101468.84;5059175;28;45499;-75
2023/08/08 09:53:42;;;;;;;;;2.00;2.00;;;;;24.16;98.43;101468.94;5077730;27;56806;-75
2023/08/08 09:56:07;;;;;;;;;2.00;2.00;;;;;24.08;98.75;101472.84;5076962;28;46532;-75
2023/08/08 09:58:33;;;;;;;;;0.00;0.00;;;;;24.10;98.69;101473.66;5077551;28;45470;-76
2023/08/08 10:00:59;;;;;;;;;2.00;1.00;;;;;24.10;98.43;101462.88;5078230;27;45264;-76
2023/08/08 10:03:25;;;;;;;;;2.67;1.00;;;;;24.10;98.80;101466.44;5078098;28;45395;-76
2023/08/08 10:05:51;;;;;;;;;2.00;1.33;;;;;24.18;98.50;101463.47;5078264;28;47375;-76
2023/08/08 10:08:17;;;;;;;;;1.00;1.00;;;;;24.25;98.74;101467.72;5058842;28;67758;-75
2023/08/08 10:10:47;;;;;;;;;2.00;1.00;;;;;24.33;98.18;101467.44;5082954;27;45276;-75
2023/08/08 10:13:21;;;;;;;;;2.00;2.00;;;;;24.41;98.32;101458.19;5077098;28;45323;-76
2023/08/08 10:15:46;;;;;;;;;2.00;2.00;;;;;24.46;97.67;101453.50;5078322;28;46525;-76
2023/08/08 10:18:12;;;;;;;;;2.00;2.00;;;;;24.50;96.84;101452.44;5077926;27;45440;-76
2023/08/08 10:20:38;;;;;;;;;2.33;2.00;;;;;24.62;96.65;101461.03;5055434;28;45247;-76
2023/08/08 10:23:03;;;;;;;;;2.00;2.00;;;;;24.77;96.23;101455.06;5056589;28;53913;-76
2023/08/08 10:25:30;;;;;;;;;1.67;1.00;;;;;24.87;95.78;101447.44;5059538;27;47847;-76
2023/08/08 10:28:04;;;;;;;;;1.00;1.00;;;;;25.00;95.42;101459.56;5059284;28;45237;-77
2023/08/08 10:30:29;;;;;;;;;2.00;2.00;;;;;24.94;94.88;101449.00;5077289;27;45553;-75
2023/08/08 10:32:56;;;;;;;;;3.00;1.00;;;;;25.03;94.43;101456.72;5077571;28;45399;-74
2023/08/08 10:35:24;;;;;;;;;1.67;1.67;;;;;25.14;94.53;101446.44;5077785;28;46584;-77
2023/08/08 10:37:53;;;;;;;;;2.00;2.00;;;;;25.34;93.47;101449.19;5051413;28;45595;-76
2023/08/08 10:40:19;;;;;;;;;1.00;1.00;;;;;25.47;94.33;101446.88;5078113;28;45455;-75
2023/08/08 10:42:46;;;;;;;;;1.00;1.00;;;;;25.64;94.21;101448.00;5077331;28;45538;-74
2023/08/08 10:45:13;;;;;;;;;1.67;1.67;;;;;25.77;93.35;101443.84;5077655;28;46336;-75
2023/08/08 10:47:39;;;;;;;;;1.33;1.00;;;;;25.90;91.77;101447.81;5075271;27;45531;-75
2023/08/08 10:50:06;;;;;;;;;1.00;1.00;;;;;26.03;92.08;101451.72;5077268;28;45543;-78
2023/08/08 10:52:34;;;;;;;;;2.00;2.00;;;;;26.15;91.95;101444.00;5076627;27;45433;-77
2023/08/08 10:55:01;;;;;;;;;1.00;1.00;;;;;26.23;88.95;101441.84;5077441;28;46968;-76
2023/08/08 10:57:27;;;;;;;;;3.00;2.00;;;;;26.28;88.61;101454.25;5077114;28;45505;-77
2023/08/08 10:59:53;;;;;;;;;2.00;2.00;;;;;26.31;89.63;101446.00;5075792;28;45456;-78
2023/08/08 11:02:19;;;;;;;;;3.33;2.33;;;;;26.37;88.62;101455.66;5077357;27;45458;-78
2023/08/08 11:04:46;;;;;;;;;1.00;1.00;;;;;26.45;87.81;101442.69;5084421;27;46875;-78
2023/08/08 11:07:11;;;;;;;;;1.00;1.00;;;;;26.51;87.24;101442.38;5077019;28;45288;-76
2023/08/08 11:09:36;;;;;;;;;1.00;1.00;;;;;26.64;87.58;101438.19;5075655;28;45465;-77
2023/08/08 11:12:02;;;;;;;;;1.33;1.33;;;;;26.79;86.55;101431.19;5077298;27;45296;-77